Time;durP1;ratioP1;P1;durP2;ratioP2;P2;SDS_P1;SDS_P2;PMS_P1;PMS_P2;Temp;Humidity;BMP_temperature;BMP_pressure;BME280_temperature;BME280_humidity;BME280_pressure;Samples;Min_cycle;Max_cycle;Signal;HPM_P1;HPM_P2
2023/08/29 00:01:02;;;;;;;15.30;9.90;;;;;;;24.77;66.66;98174.80;105575;1258;62717;-23
2023/08/29 00:03:33;;;;;;;13.20;10.40;;;;;;;24.59;67.17;98171.00;105682;1254;62806;-23
2023/08/29 00:06:04;;;;;;;12.20;10.90;;;;;;;24.43;67.53;98174.64;105626;1260;75518;-23
2023/08/29 00:08:33;;;;;;;12.40;10.20;;;;;;;24.28;68.11;98173.93;105479;1262;75930;-23
2023/08/29 00:11:02;;;;;;;11.00;9.80;;;;;;;24.13;68.62;98175.75;105695;1256;75214;-23
2023/08/29 00:13:30;;;;;;;10.40;7.80;;;;;;;24.02;69.35;98177.41;105544;1262;61757;-23
2023/08/29 00:15:58;;;;;;;12.90;7.80;;;;;;;24.49;68.54;98181.29;105578;1254;61187;-23
2023/08/29 00:18:26;;;;;;;11.70;9.10;;;;;;;24.94;66.72;98178.33;105554;1254;73113;-23
2023/08/29 00:20:54;;;;;;;12.30;9.50;;;;;;;24.98;66.39;98178.19;105596;1260;75917;-24
2023/08/29 00:23:22;;;;;;;11.40;9.90;;;;;;;24.76;66.78;98175.69;105637;1255;71462;-23
2023/08/29 00:25:50;;;;;;;13.50;10.10;;;;;;;24.59;67.29;98176.73;105627;1254;61103;-23
2023/08/29 00:28:18;;;;;;;13.00;10.40;;;;;;;24.40;67.86;98177.88;105642;1260;62180;-23
2023/08/29 00:30:47;;;;;;;15.40;10.50;;;;;;;24.21;68.49;98175.29;105670;1255;77158;-23
2023/08/29 00:33:16;;;;;;;13.60;10.90;;;;;;;24.06;69.02;98175.28;105715;1254;76800;-23
2023/08/29 00:35:45;;;;;;;12.40;9.60;;;;;;;23.89;69.61;98173.11;105486;1262;72725;-23
2023/08/29 00:38:13;;;;;;;10.60;7.60;;;;;;;23.82;69.67;98178.19;105652;1255;61723;-23
2023/08/29 00:40:41;;;;;;;8.50;7.70;;;;;;;24.32;68.77;98178.04;105672;1255;61186;-23
2023/08/29 00:43:09;;;;;;;13.70;8.90;;;;;;;24.80;66.94;98178.35;105562;1255;74422;-23
2023/08/29 00:45:37;;;;;;;14.40;9.60;;;;;;;24.86;66.15;98176.29;105626;1254;74433;-23
2023/08/29 00:48:06;;;;;;;12.70;9.50;;;;;;;24.73;66.33;98175.05;105632;1254;74032;-23
2023/08/29 00:50:35;;;;;;;10.50;9.50;;;;;;;24.56;66.79;98179.18;105360;1258;62511;-23
2023/08/29 00:53:04;;;;;;;10.50;9.40;;;;;;;24.41;67.03;98175.35;105504;1254;61428;-23
2023/08/29 00:55:33;;;;;;;11.60;9.60;;;;;;;24.25;67.57;98174.09;105503;1254;76895;-23
2023/08/29 00:58:02;;;;;;;12.20;10.50;;;;;;;24.11;68.07;98175.71;105313;1264;76604;-23
2023/08/29 01:00:32;;;;;;;11.90;9.90;;;;;;;23.97;68.30;98173.87;105524;1257;75191;-23
2023/08/29 01:03:00;;;;;;;9.80;6.80;;;;;;;23.86;68.79;98176.02;105577;1254;61132;-23
2023/08/29 01:05:28;;;;;;;9.20;7.10;;;;;;;24.35;68.24;98173.84;105665;1254;61507;-23
2023/08/29 01:07:59;;;;;;;13.10;8.70;;;;;;;24.87;66.64;98175.66;105570;1256;75360;-23
2023/08/29 01:10:39;;;;;;;12.00;8.50;;;;;;;24.92;65.77;98166.53;105460;1254;78250;-22
2023/08/29 01:13:19;;;;;;;11.30;9.40;;;;;;;24.75;65.90;98172.56;105310;1254;74540;-23
2023/08/29 01:15:48;;;;;;;16.00;11.70;;;;;;;24.51;66.50;98172.23;105501;1257;61115;-22
2023/08/29 01:18:17;;;;;;;14.70;11.70;;;;;;;24.29;67.05;98173.84;105355;1260;62445;-23
2023/08/29 01:20:46;;;;;;;15.70;11.50;;;;;;;24.05;67.88;98169.36;105517;1254;76572;-22
2023/08/29 01:23:21;;;;;;;13.00;11.10;;;;;;;23.84;68.22;98169.98;105245;1257;74430;-22
2023/08/29 01:26:16;;;;;;;19.00;10.30;;;;;;;23.66;68.70;98166.94;105268;1257;72707;-23
2023/08/29 01:28:45;;;;;;;10.20;7.60;;;;;;;23.56;69.26;98162.85;105521;1260;63195;-23
2023/08/29 01:31:13;;;;;;;13.10;8.20;;;;;;;24.07;68.57;98164.98;105567;1262;61105;-23
2023/08/29 01:33:41;;;;;;;11.50;8.40;;;;;;;24.43;67.13;98165.11;105485;1254;76813;-23
2023/08/29 01:36:09;;;;;;;14.10;9.40;;;;;;;24.41;66.90;98165.60;105484;1254;74466;-23
2023/08/29 01:38:37;;;;;;;16.90;9.90;;;;;;;24.15;67.54;98160.91;105526;1259;71423;-23
2023/08/29 01:41:05;;;;;;;13.50;9.10;;;;;;;23.95;67.98;98159.27;105607;1254;61260;-23
2023/08/29 01:43:34;;;;;;;13.20;9.80;;;;;;;23.80;68.26;98158.94;105671;1255;61169;-23
2023/08/29 01:46:02;;;;;;;12.20;10.50;;;;;;;23.64;68.94;98160.20;105605;1254;77994;-23
2023/08/29 01:48:31;;;;;;;17.20;10.10;;;;;;;23.46;69.58;98154.47;105641;1259;73340;-23
2023/08/29 01:50:59;;;;;;;11.40;7.70;;;;;;;23.35;70.12;98150.32;105462;1257;72676;-23
2023/08/29 01:53:27;;;;;;;10.00;8.60;;;;;;;23.74;69.16;98145.59;105567;1263;62820;-23
2023/08/29 01:55:55;;;;;;;10.80;9.10;;;;;;;24.20;67.21;98147.92;105434;1260;61205;-23
2023/08/29 01:58:23;;;;;;;16.70;9.70;;;;;;;24.26;66.71;98145.71;105183;1262;76309;-23
2023/08/29 02:00:51;;;;;;;16.70;10.40;;;;;;;24.17;66.68;98141.75;105471;1261;78278;-23
2023/08/29 02:03:23;;;;;;;13.80;9.60;;;;;;;24.04;66.92;98140.96;105574;1261;72037;-24
2023/08/29 02:05:51;;;;;;;12.00;10.20;;;;;;;23.92;67.12;98137.96;105509;1254;61176;-22
2023/08/29 02:08:19;;;;;;;11.90;9.10;;;;;;;23.76;67.86;98135.36;105586;1254;62585;-22
2023/08/29 02:10:48;;;;;;;14.20;10.40;;;;;;;23.65;68.07;98137.98;105570;1259;75256;-22
2023/08/29 02:13:16;;;;;;;14.00;10.30;;;;;;;23.51;68.58;98140.31;105662;1254;73244;-22
2023/08/29 02:15:44;;;;;;;9.20;7.20;;;;;;;23.46;69.42;98141.30;105543;1259;72462;-22
2023/08/29 02:18:11;;;;;;;10.50;7.70;;;;;;;23.99;68.14;98142.71;105426;1260;61275;-22
2023/08/29 02:20:40;;;;;;;11.10;8.30;;;;;;;24.38;66.65;98143.16;105633;1254;61049;-22
2023/08/29 02:23:10;;;;;;;11.00;8.60;;;;;;;24.40;66.24;98146.65;105566;1262;75983;-22
2023/08/29 02:25:39;;;;;;;13.80;8.90;;;;;;;24.25;66.37;98146.27;105417;1255;75758;-22
2023/08/29 02:28:07;;;;;;;12.30;9.50;;;;;;;24.07;66.80;98150.48;105558;1258;74898;-22
2023/08/29 02:30:36;;;;;;;13.60;10.80;;;;;;;23.88;67.34;98146.94;105619;1254;61854;-22
2023/08/29 02:33:04;;;;;;;14.90;10.10;;;;;;;23.70;67.70;98148.25;105608;1259;62495;-22
2023/08/29 02:35:32;;;;;;;13.70;10.60;;;;;;;23.52;68.20;98142.71;105177;1254;72758;-22
2023/08/29 02:38:00;;;;;;;12.20;10.50;;;;;;;23.35;68.84;98133.90;105184;1254;74909;-22
2023/08/29 02:40:32;;;;;;;9.20;7.60;;;;;;;23.23;69.63;98131.27;105556;1256;75634;-22
2023/08/29 02:43:00;;;;;;;12.30;8.00;;;;;;;23.74;68.87;98133.48;105261;1254;61530;-22
2023/08/29 02:45:28;;;;;;;10.70;8.10;;;;;;;24.28;66.87;98135.27;105441;1258;61161;-22
2023/08/29 02:47:56;;;;;;;10.60;9.10;;;;;;;24.37;66.06;98135.26;105578;1254;76294;-22
2023/08/29 02:50:24;;;;;;;12.80;8.60;;;;;;;24.23;66.22;98130.95;105356;1260;76750;-22
2023/08/29 02:52:51;;;;;;;13.60;9.40;;;;;;;24.05;66.55;98130.54;105346;1257;75179;-22
2023/08/29 02:55:20;;;;;;;11.50;8.90;;;;;;;23.84;67.19;98134.21;105534;1254;61138;-22
2023/08/29 02:57:48;;;;;;;16.50;9.30;;;;;;;23.65;67.62;98134.73;105382;1254;61020;-22
2023/08/29 03:00:16;;;;;;;11.80;9.90;;;;;;;23.49;67.98;98139.25;105622;1259;75223;-22
2023/08/29 03:02:44;;;;;;;12.40;9.60;;;;;;;23.35;68.62;98139.16;105601;1254;78232;-22
2023/08/29 03:05:11;;;;;;;14.20;7.20;;;;;;;23.25;68.98;98140.80;105637;1260;72709;-22
2023/08/29 03:07:39;;;;;;;10.20;7.70;;;;;;;23.69;68.61;98144.09;105659;1257;61059;-23
2023/08/29 03:10:08;;;;;;;17.80;12.40;;;;;;;24.13;66.90;98152.03;105645;1254;62785;-22
2023/08/29 03:12:36;;;;;;;15.20;10.20;;;;;;;24.16;66.40;98159.94;105538;1257;75254;-22
2023/08/29 03:15:04;;;;;;;11.40;9.30;;;;;;;23.97;66.71;98163.33;105416;1260;74547;-22
2023/08/29 03:17:32;;;;;;;10.70;9.50;;;;;;;23.81;67.06;98165.34;105310;1257;75233;-22
2023/08/29 03:20:01;;;;;;;12.20;9.90;;;;;;;23.64;67.35;98170.98;105558;1257;60981;-22
2023/08/29 03:22:29;;;;;;;11.60;9.80;;;;;;;23.46;67.73;98165.38;105439;1259;61096;-22
2023/08/29 03:24:57;;;;;;;14.30;9.80;;;;;;;23.30;68.02;98163.85;105367;1254;76342;-22
2023/08/29 03:27:25;;;;;;;13.20;10.00;;;;;;;23.17;68.44;98167.58;105544;1254;74987;-22
2023/08/29 03:29:53;;;;;;;11.00;8.70;;;;;;;23.07;68.92;98166.31;105494;1257;72706;-22
2023/08/29 03:32:21;;;;;;;19.20;11.90;;;;;;;23.58;68.63;98167.17;105604;1257;62026;-22
2023/08/29 03:34:53;;;;;;;16.20;11.20;;;;;;;24.15;66.73;98164.80;105581;1254;61789;-23
2023/08/29 03:37:21;;;;;;;13.50;11.00;;;;;;;24.26;65.87;98168.63;105430;1254;73913;-22
2023/08/29 03:39:48;;;;;;;11.80;10.10;;;;;;;24.16;65.96;98171.23;105630;1254;78355;-22
2023/08/29 03:42:17;;;;;;;11.40;10.20;;;;;;;24.01;66.24;98173.81;105601;1254;74123;-22
2023/08/29 03:44:45;;;;;;;14.80;10.70;;;;;;;23.88;66.45;98171.83;105582;1260;64006;-22
2023/08/29 03:47:13;;;;;;;18.90;11.50;;;;;;;23.77;66.67;98175.51;105624;1254;61004;-23
2023/08/29 03:49:41;;;;;;;21.90;15.10;;;;;;;23.65;67.06;98169.63;105623;1260;77722;-22
2023/08/29 03:52:09;;;;;;;46.10;31.50;;;;;;;23.55;67.29;98167.70;105561;1260;76139;-22
2023/08/29 03:54:36;;;;;;;33.90;22.70;;;;;;;23.49;67.55;98165.81;105179;1257;75150;-22
2023/08/29 03:57:05;;;;;;;21.40;13.80;;;;;;;23.47;67.83;98167.84;105375;1257;64099;-22
2023/08/29 03:59:33;;;;;;;13.50;10.20;;;;;;;24.04;67.24;98172.06;105653;1260;62977;-22
2023/08/29 04:02:06;;;;;;;18.80;9.40;;;;;;;24.67;65.17;98170.84;105658;1260;75211;-22
2023/08/29 04:04:35;;;;;;;11.10;9.10;;;;;;;24.82;64.26;98165.58;105532;1262;78571;-22
2023/08/29 04:07:04;;;;;;;11.70;9.20;;;;;;;24.70;63.94;98164.81;105670;1257;75888;-22
2023/08/29 04:09:33;;;;;;;15.40;9.80;;;;;;;24.51;64.29;98158.45;105675;1254;61505;-22
2023/08/29 04:12:01;;;;;;;11.80;9.00;;;;;;;24.32;64.77;98155.48;105662;1254;62484;-22
2023/08/29 04:14:29;;;;;;;12.20;9.60;;;;;;;24.12;65.46;98148.23;105591;1255;75896;-22
2023/08/29 04:16:57;;;;;;;11.60;10.20;;;;;;;23.94;65.92;98142.40;105395;1254;78460;-22
2023/08/29 04:19:25;;;;;;;12.80;10.90;;;;;;;23.79;66.51;98143.87;105311;1260;75481;-22
2023/08/29 04:21:53;;;;;;;14.10;11.00;;;;;;;23.65;67.12;98148.46;105516;1254;61491;-22
2023/08/29 04:24:21;;;;;;;14.00;10.60;;;;;;;23.54;67.45;98147.05;105546;1254;62658;-22
2023/08/29 04:26:49;;;;;;;9.30;7.70;;;;;;;23.50;67.95;98144.95;105541;1261;75026;-23
2023/08/29 04:29:17;;;;;;;12.20;8.10;;;;;;;24.03;67.11;98139.44;105568;1257;73200;-22
2023/08/29 04:31:46;;;;;;;10.70;8.20;;;;;;;24.54;65.32;98136.63;105609;1259;76033;-22
2023/08/29 04:34:14;;;;;;;14.60;10.20;;;;;;;24.69;64.70;98137.22;105632;1257;62655;-22
2023/08/29 04:36:42;;;;;;;13.00;10.00;;;;;;;24.66;64.44;98134.66;105579;1260;62480;-22
2023/08/29 04:39:10;;;;;;;15.20;11.20;;;;;;;24.58;64.75;98137.86;105604;1263;76279;-22
2023/08/29 04:41:38;;;;;;;22.60;16.80;;;;;;;24.51;64.96;98137.74;105625;1257;74483;-23
2023/08/29 04:44:06;;;;;;;23.30;17.70;;;;;;;24.44;65.11;98136.81;105553;1261;74163;-22
2023/08/29 04:46:34;;;;;;;25.00;17.20;;;;;;;24.37;65.31;98139.63;105495;1260;61142;-22
2023/08/29 04:49:02;;;;;;;22.20;15.40;;;;;;;24.36;65.42;98136.04;105357;1255;62448;-22
2023/08/29 04:51:31;;;;;;;18.40;14.20;;;;;;;24.42;65.49;98134.87;105628;1259;77709;-22
2023/08/29 04:53:59;;;;;;;14.60;12.80;;;;;;;24.49;65.20;98131.44;105416;1259;74455;-22
2023/08/29 04:56:27;;;;;;;12.70;10.90;;;;;;;24.55;65.10;98130.52;105426;1258;72758;-22
2023/08/29 04:58:56;;;;;;;18.80;10.90;;;;;;;24.61;64.95;98123.44;105607;1255;61183;-22
2023/08/29 05:01:24;;;;;;;10.30;8.30;;;;;;;24.68;64.96;98124.42;105641;1259;61160;-22
2023/08/29 05:03:52;;;;;;;13.20;7.50;;;;;;;25.34;63.92;98120.48;105544;1257;71707;-22
2023/08/29 05:06:19;;;;;;;10.60;8.60;;;;;;;26.07;61.02;98116.75;105591;1260;78651;-23
2023/08/29 05:08:47;;;;;;;15.20;8.80;;;;;;;26.41;60.42;98118.78;105543;1254;71996;-22
2023/08/29 05:11:15;;;;;;;20.40;9.80;;;;;;;26.48;59.75;98116.56;105598;1255;61128;-22
2023/08/29 05:13:43;;;;;;;13.10;9.90;;;;;;;26.42;59.53;98111.11;105585;1254;61068;-23
2023/08/29 05:16:11;;;;;;;12.80;10.10;;;;;;;26.40;59.74;98107.41;105588;1254;76304;-22
2023/08/29 05:18:39;;;;;;;15.00;10.50;;;;;;;26.45;60.06;98105.70;105553;1254;74437;-22
2023/08/29 05:21:07;;;;;;;16.00;10.70;;;;;;;26.51;59.85;98106.44;105388;1257;75171;-22
2023/08/29 05:23:35;;;;;;;15.30;10.00;;;;;;;26.59;59.22;98105.39;105579;1257;61145;-22
2023/08/29 05:26:03;;;;;;;14.70;10.50;;;;;;;26.65;59.03;98104.43;105641;1259;61589;-22
2023/08/29 05:28:31;;;;;;;10.30;8.50;;;;;;;26.69;58.79;98099.45;105636;1259;76570;-22
2023/08/29 05:30:58;;;;;;;12.80;9.40;;;;;;;26.72;58.49;98100.02;105632;1259;76776;-22
2023/08/29 05:33:26;;;;;;;14.40;9.90;;;;;;;26.79;58.05;98102.35;105638;1260;73157;-23
2023/08/29 05:35:54;;;;;;;15.10;10.30;;;;;;;26.84;58.38;98103.43;105639;1254;61192;-22
2023/08/29 05:38:25;;;;;;;13.80;10.00;;;;;;;26.92;58.55;98104.73;105625;1254;64004;-23
2023/08/29 05:40:53;;;;;;;14.70;10.20;;;;;;;27.03;58.11;98107.75;105675;1254;76327;-23
2023/08/29 05:43:21;;;;;;;15.00;9.60;;;;;;;27.11;57.58;98114.70;105478;1260;77442;-23
2023/08/29 05:45:49;;;;;;;13.40;9.50;;;;;;;27.18;57.45;98111.16;105308;1254;73063;-23
2023/08/29 05:48:17;;;;;;;13.00;10.20;;;;;;;27.21;56.89;98105.78;105608;1254;63909;-23
2023/08/29 05:50:45;;;;;;;11.00;9.50;;;;;;;27.18;57.00;98111.53;105590;1260;61163;-23
2023/08/29 05:53:14;;;;;;;14.40;9.90;;;;;;;27.09;57.33;98112.92;105611;1254;72893;-23
2023/08/29 05:55:42;;;;;;;13.70;9.10;;;;;;;27.05;58.53;98112.52;105494;1254;75734;-23
2023/08/29 05:58:10;;;;;;;14.70;9.20;;;;;;;26.92;59.35;98109.80;105577;1260;75136;-23
2023/08/29 06:00:37;;;;;;;15.50;9.70;;;;;;;26.91;59.10;98111.89;105327;1257;61151;-23
2023/08/29 06:03:07;;;;;;;11.90;9.50;;;;;;;26.89;59.39;98112.14;105463;1259;63819;-23
2023/08/29 06:05:41;;;;;;;14.70;9.60;;;;;;;26.92;59.03;98109.42;105502;1262;77624;-23
2023/08/29 06:08:10;;;;;;;10.20;8.50;;;;;;;26.98;59.23;98111.61;105641;1254;78222;-23
2023/08/29 06:10:46;;;;;;;13.40;8.90;;;;;;;27.09;58.61;98114.59;105403;1256;75171;-23
2023/08/29 06:13:14;;;;;;;14.30;9.20;;;;;;;27.20;57.81;98108.66;105351;1260;61214;-23
2023/08/29 06:15:42;;;;;;;15.50;9.80;;;;;;;27.32;57.10;98106.02;105282;1259;62863;-23
2023/08/29 06:18:10;;;;;;;10.80;8.80;;;;;;;27.46;56.64;98105.36;105407;1261;72669;-23
2023/08/29 06:20:38;;;;;;;9.30;7.90;;;;;;;27.58;55.43;98107.73;105432;1254;76523;-23
2023/08/29 06:23:06;;;;;;;12.30;9.00;;;;;;;27.68;55.02;98109.34;105372;1258;75193;-23
2023/08/29 06:25:35;;;;;;;14.70;9.30;;;;;;;27.74;54.85;98109.91;105555;1254;61164;-23
2023/08/29 06:28:04;;;;;;;14.70;10.50;;;;;;;27.85;54.09;98110.74;105657;1259;62910;-23
2023/08/29 06:30:33;;;;;;;19.20;9.50;;;;;;;27.94;54.12;98112.48;105558;1254;73920;-23
2023/08/29 06:33:01;;;;;;;11.90;9.30;;;;;;;28.06;54.14;98112.33;105342;1254;76527;-23
2023/08/29 06:35:29;;;;;;;13.00;8.40;;;;;;;28.20;53.55;98113.09;105581;1257;75232;-23
2023/08/29 06:37:57;;;;;;;15.20;9.60;;;;;;;28.36;53.07;98114.51;105534;1258;62382;-23
2023/08/29 06:40:25;;;;;;;14.50;9.30;;;;;;;28.51;52.91;98110.52;105551;1257;63896;-23
2023/08/29 06:42:53;;;;;;;13.00;9.40;;;;;;;28.67;52.54;98109.94;105631;1263;76581;-23
2023/08/29 06:45:21;;;;;;;15.80;9.40;;;;;;;28.88;51.79;98107.52;105598;1259;76799;-23
2023/08/29 06:47:51;;;;;;;17.90;11.70;;;;;;;29.03;51.05;98103.74;105580;1257;75185;-23
2023/08/29 06:50:19;;;;;;;27.00;15.80;;;;;;;29.15;51.31;98102.23;105621;1260;61336;-23
2023/08/29 06:52:47;;;;;;;20.60;12.30;;;;;;;29.34;50.69;98101.61;105577;1260;62945;-23
2023/08/29 06:55:16;;;;;;;17.00;10.80;;;;;;;29.55;50.12;98098.63;105603;1254;73909;-23
2023/08/29 06:57:44;;;;;;;14.00;11.00;;;;;;;29.78;49.75;98102.30;105343;1265;77017;-23
2023/08/29 07:00:12;;;;;;;15.60;9.90;;;;;;;30.02;49.12;98103.77;105596;1260;71462;-23
2023/08/29 07:02:41;;;;;;;9.50;8.30;;;;;;;30.21;48.54;98105.33;105539;1256;61154;-23
2023/08/29 07:05:09;;;;;;;13.10;8.70;;;;;;;30.41;48.40;98106.39;105583;1262;61114;-23
2023/08/29 07:07:40;;;;;;;12.20;7.80;;;;;;;30.60;47.74;98107.63;105637;1259;64960;-23
2023/08/29 07:10:08;;;;;;;8.00;6.30;;;;;;;30.79;47.00;98104.59;105646;1260;65620;-23
2023/08/29 07:12:36;;;;;;;11.60;7.00;;;;;;;30.97;46.40;98109.63;105539;1260;65236;-23
2023/08/29 07:15:05;;;;;;;10.80;6.30;;;;;;;31.17;46.03;98110.97;105612;1255;61154;-23
2023/08/29 07:17:33;;;;;;;9.60;6.80;;;;;;;31.35;44.85;98111.89;105370;1254;62028;-23
2023/08/29 07:20:08;;;;;;;12.90;7.10;;;;;;;31.49;44.90;98114.75;105657;1257;67770;-23
2023/08/29 07:22:37;;;;;;;9.70;6.80;;;;;;;31.64;44.48;98111.84;105388;1255;66827;-23
2023/08/29 07:25:05;;;;;;;13.10;7.20;;;;;;;31.74;43.90;98110.83;105272;1258;66085;-22
2023/08/29 07:27:33;;;;;;;13.40;6.80;;;;;;;31.75;43.04;98110.04;105414;1257;61272;-23
2023/08/29 07:30:01;;;;;;;8.10;6.30;;;;;;;31.83;42.79;98105.45;105347;1262;61282;-23
2023/08/29 07:32:30;;;;;;;12.20;6.40;;;;;;;31.96;42.64;98108.67;105188;1257;65133;-23
2023/08/29 07:34:58;;;;;;;11.20;6.90;;;;;;;32.11;42.68;98112.73;105600;1260;66820;-23
2023/08/29 07:37:26;;;;;;;12.80;6.00;;;;;;;32.24;42.03;98111.41;105436;1256;66255;-23
2023/08/29 07:39:54;;;;;;;8.30;6.10;;;;;;;32.30;41.71;98114.73;105279;1260;61148;-23
2023/08/29 07:42:22;;;;;;;5.90;5.10;;;;;;;32.48;41.24;98110.83;105301;1254;61151;-23
2023/08/29 07:44:50;;;;;;;13.10;5.60;;;;;;;32.62;40.65;98109.86;105283;1257;64982;-23
2023/08/29 07:47:17;;;;;;;9.90;5.60;;;;;;;32.74;39.89;98113.11;105286;1260;77634;-23
2023/08/29 07:49:45;;;;;;;9.40;5.80;;;;;;;32.86;39.81;98114.13;105387;1257;66649;-23
2023/08/29 07:52:13;;;;;;;8.10;5.50;;;;;;;33.01;39.14;98116.04;105286;1260;61119;-23
2023/08/29 07:54:42;;;;;;;10.60;6.20;;;;;;;33.25;38.39;98112.31;105296;1260;61377;-23
2023/08/29 07:57:10;;;;;;;10.50;5.50;;;;;;;33.50;37.65;98106.22;105288;1258;67214;-24
2023/08/29 07:59:40;;;;;;;9.90;5.00;;;;;;;33.75;36.67;98108.20;105254;1254;67803;-23
2023/08/29 08:02:08;;;;;;;12.30;5.10;;;;;;;33.90;35.41;98102.83;105324;1257;66243;-23
2023/08/29 08:04:36;;;;;;;8.80;5.10;;;;;;;34.00;36.02;98101.65;105429;1257;61103;-23
2023/08/29 08:07:05;;;;;;;8.70;5.20;;;;;;;34.13;35.75;98102.63;105543;1259;61190;-23
2023/08/29 08:09:34;;;;;;;12.10;5.00;;;;;;;34.34;35.36;98103.56;105331;1255;67293;-23
2023/08/29 08:12:02;;;;;;;8.70;4.90;;;;;;;34.60;34.99;98100.23;105330;1254;65544;-23
2023/08/29 08:14:30;;;;;;;8.70;5.20;;;;;;;34.85;35.02;98099.94;105327;1260;66850;-23
2023/08/29 08:16:58;;;;;;;9.20;4.50;;;;;;;35.15;33.95;98096.64;105447;1255;61154;-23
2023/08/29 08:19:26;;;;;;;11.60;5.10;;;;;;;35.37;33.21;98094.31;105403;1254;60996;-23
2023/08/29 08:21:54;;;;;;;11.20;4.80;;;;;;;35.51;32.53;98091.48;105498;1260;63761;-23
2023/08/29 08:24:22;;;;;;;8.00;4.60;;;;;;;35.71;32.45;98095.03;105641;1259;67844;-23
2023/08/29 08:26:50;;;;;;;9.90;4.40;;;;;;;35.90;31.16;98092.67;105590;1254;63817;-23
2023/08/29 08:29:17;;;;;;;12.20;4.80;;;;;;;36.13;30.42;98087.06;105517;1255;61157;-23
2023/08/29 08:31:46;;;;;;;8.40;4.80;;;;;;;36.36;29.48;98085.52;105351;1263;61163;-23
2023/08/29 08:34:14;;;;;;;12.10;4.70;;;;;;;36.51;29.22;98086.36;105394;1261;67416;-23
2023/08/29 08:36:42;;;;;;;7.60;4.60;;;;;;;36.62;29.44;98082.10;105291;1260;64399;-23
2023/08/29 08:39:10;;;;;;;12.60;5.10;;;;;;;36.76;29.03;98080.18;105219;1258;63848;-23
2023/08/29 08:41:38;;;;;;;8.60;4.30;;;;;;;36.77;28.43;98080.14;105149;1263;61208;-22
2023/08/29 08:44:09;;;;;;;7.90;4.50;;;;;;;36.75;28.66;98077.86;105340;1259;61111;-23
2023/08/29 08:46:38;;;;;;;7.90;4.40;;;;;;;36.79;28.92;98072.17;105241;1262;67764;-23
2023/08/29 08:49:07;;;;;;;11.60;4.30;;;;;;;36.70;28.56;98071.66;105360;1257;67888;-23
2023/08/29 08:51:36;;;;;;;10.30;4.30;;;;;;;36.52;28.86;98081.13;105382;1257;65198;-23
2023/08/29 08:54:06;;;;;;;13.50;4.70;;;;;;;36.48;29.16;98080.42;105330;1262;61003;-23
2023/08/29 08:56:34;;;;;;;6.00;3.80;;;;;;;36.54;29.21;98079.77;105353;1254;61125;-23
2023/08/29 08:59:03;;;;;;;16.10;5.20;;;;;;;36.60;29.04;98079.20;105361;1254;67311;-23
2023/08/29 09:01:31;;;;;;;8.40;4.60;;;;;;;36.56;28.92;98072.32;105315;1260;69170;-23
2023/08/29 09:03:59;;;;;;;9.80;4.50;;;;;;;36.53;28.79;98068.91;102863;1258;3350431;-23
2023/08/29 09:06:28;;;;;;;7.90;4.60;;;;;;;36.54;28.57;98072.48;105303;1260;60978;-23
2023/08/29 09:08:57;;;;;;;8.30;4.60;;;;;;;36.62;29.10;98071.10;105367;1260;61153;-23
2023/08/29 09:11:25;;;;;;;9.10;4.50;;;;;;;36.77;28.57;98072.72;105669;1260;66510;-23
2023/08/29 09:13:53;;;;;;;8.30;4.10;;;;;;;36.92;28.25;98071.69;105720;1258;67226;-23
2023/08/29 09:16:21;;;;;;;9.00;4.60;;;;;;;36.92;28.33;98071.27;105649;1257;65804;-23
2023/08/29 09:18:49;;;;;;;13.90;5.20;;;;;;;36.95;27.91;98071.09;105331;1263;61160;-23
2023/08/29 09:21:23;;;;;;;5.30;4.70;;;;;;;37.09;28.09;98071.05;105480;1260;61177;-23
2023/08/29 09:23:52;;;;;;;17.80;6.60;;;;;;;37.04;27.55;98070.66;105301;1257;65602;-23
2023/08/29 09:26:20;;;;;;;19.30;4.80;;;;;;;36.93;28.08;98067.20;105269;1259;67857;-23
2023/08/29 09:28:48;;;;;;;7.00;4.40;;;;;;;37.26;27.60;98062.26;105366;1260;66247;-23
2023/08/29 09:31:16;;;;;;;10.10;4.50;;;;;;;37.59;27.09;98066.48;105274;1256;61132;-23
2023/08/29 09:33:44;;;;;;;9.40;4.80;;;;;;;37.82;27.01;98065.11;105254;1256;61108;-23
2023/08/29 09:36:12;;;;;;;8.60;4.50;;;;;;;37.92;26.70;98066.44;105185;1254;67464;-23
2023/08/29 09:38:40;;;;;;;7.10;4.20;;;;;;;37.96;26.51;98061.17;105275;1260;67802;-23
2023/08/29 09:41:14;;;;;;;10.40;4.70;;;;;;;38.11;26.45;98057.11;105228;1257;64455;-23
2023/08/29 09:43:46;;;;;;;9.70;5.60;;;;;;;38.23;25.76;98049.79;105180;1263;61132;-23
2023/08/29 09:46:20;;;;;;;10.40;5.40;;;;;;;38.25;25.72;98053.41;105189;1262;61045;-23
2023/08/29 09:48:55;;;;;;;9.20;4.40;;;;;;;38.36;26.17;98053.98;105145;1263;67319;-23
2023/08/29 09:51:26;;;;;;;7.60;4.10;;;;;;;38.53;25.78;98056.50;105351;1258;68311;-23
2023/08/29 09:53:56;;;;;;;9.40;4.80;;;;;;;38.90;25.44;98057.20;105541;1258;63821;-23
2023/08/29 09:56:24;;;;;;;8.40;4.70;;;;;;;39.30;24.85;98057.34;105116;1257;61040;-23
2023/08/29 09:58:52;;;;;;;10.50;4.30;;;;;;;39.57;24.52;98059.09;105161;1256;61136;-23
2023/08/29 10:01:20;;;;;;;8.40;4.60;;;;;;;39.73;24.32;98056.14;105353;1254;67784;-23
2023/08/29 10:03:48;;;;;;;10.40;4.00;;;;;;;39.70;24.43;98051.63;105419;1263;68985;-23
2023/08/29 10:06:16;;;;;;;8.70;4.70;;;;;;;39.73;24.04;98053.21;105674;1259;66677;-23
2023/08/29 10:08:50;;;;;;;11.40;4.70;;;;;;;39.71;24.27;98061.77;105272;1260;61150;-24
2023/08/29 10:11:21;;;;;;;6.40;4.20;;;;;;;39.88;23.79;98056.90;105553;1254;61875;-23
2023/08/29 10:13:49;;;;;;;7.60;4.20;;;;;;;40.03;23.30;98046.60;105161;1257;63735;-23
2023/08/29 10:16:18;;;;;;;6.90;4.70;;;;;;;40.13;23.92;98051.70;105180;1262;67774;-24
2023/08/29 10:18:46;;;;;;;12.70;5.30;;;;;;;39.96;23.41;98050.30;105166;1263;66257;-23
2023/08/29 10:21:14;;;;;;;7.00;4.80;;;;;;;40.03;23.76;98049.40;105293;1260;61278;-23
2023/08/29 10:23:42;;;;;;;6.30;4.80;;;;;;;40.13;23.84;98055.93;105249;1254;61152;-23
2023/08/29 10:26:10;;;;;;;13.60;5.60;;;;;;;39.97;23.49;98054.38;105190;1255;67032;-23
2023/08/29 10:28:38;;;;;;;12.90;5.30;;;;;;;39.47;24.05;98055.63;105146;1263;68206;-23
2023/08/29 10:31:08;;;;;;;10.10;5.20;;;;;;;39.80;23.98;98059.62;105537;1260;66255;-23
2023/08/29 10:33:36;;;;;;;12.10;5.00;;;;;;;39.69;23.82;98060.71;105598;1263;61170;-24
2023/08/29 10:36:08;;;;;;;11.70;5.20;;;;;;;38.90;24.33;98060.14;105674;1260;61157;-23
2023/08/29 10:38:40;;;;;;;8.00;4.70;;;;;;;38.77;25.00;98059.25;105449;1260;64984;-23
2023/08/29 10:41:09;;;;;;;8.10;4.80;;;;;;;39.25;24.35;98064.81;105656;1255;65595;-22
2023/08/29 10:43:37;;;;;;;8.70;5.10;;;;;;;39.51;24.06;98063.05;105565;1258;66304;-22
2023/08/29 10:46:11;;;;;;;14.00;5.80;;;;;;;39.32;24.28;98063.45;105410;1261;61224;-23
2023/08/29 10:48:39;;;;;;;11.40;6.00;;;;;;;39.57;23.95;98062.61;105461;1261;64066;-23
2023/08/29 10:51:10;;;;;;;11.00;5.40;;;;;;;39.72;23.73;98059.48;105495;1260;63715;-23
2023/08/29 10:53:49;;;;;;;7.90;4.90;;;;;;;39.95;23.63;98063.02;105337;1263;67840;-23
2023/08/29 10:56:19;;;;;;;11.10;5.20;;;;;;;40.13;23.55;98059.56;105314;1260;65094;-23
2023/08/29 10:58:50;;;;;;;9.80;5.70;;;;;;;39.92;23.81;98054.21;105646;1258;60987;-23
2023/08/29 11:01:24;;;;;;;8.20;4.60;;;;;;;39.90;24.08;98059.79;105461;1255;61051;-23
2023/08/29 11:03:52;;;;;;;9.50;5.10;;;;;;;40.08;23.56;98059.05;105559;1263;64964;-23
2023/08/29 11:06:24;;;;;;;11.20;5.10;;;;;;;40.14;23.58;98059.45;105677;1259;67934;-22
2023/08/29 11:09:15;;;;;;;12.70;6.00;;;;;;;40.26;23.42;98058.33;105496;1257;66661;-23
2023/08/29 11:11:43;;;;;;;8.60;5.20;;;;;;;40.44;23.13;98053.94;105598;1260;61241;-23
2023/08/29 11:14:11;;;;;;;10.50;5.00;;;;;;;40.48;22.62;98049.24;105575;1262;61126;-23
2023/08/29 11:16:59;;;;;;;11.40;5.80;;;;;;;40.05;23.15;98053.42;105630;1261;66381;-23
2023/08/29 11:19:27;;;;;;;11.20;5.40;;;;;;;39.67;23.88;98055.19;105641;1258;67837;-23
2023/08/29 11:21:57;;;;;;;11.70;5.00;;;;;;;39.28;24.16;98051.52;105513;1260;65764;-23
2023/08/29 11:24:25;;;;;;;7.10;4.60;;;;;;;39.13;24.78;98049.27;105460;1260;61147;-23